createdAt,value
2023-01-23T00:01:31.388Z,103230.06
2023-01-23T00:04:00.701Z,103225.81
2023-01-23T00:06:29.285Z,103235.44
2023-01-23T00:08:57.727Z,103229.78
2023-01-23T00:11:28.502Z,103229.97
2023-01-23T00:13:58.551Z,103237.44
2023-01-23T00:16:28.486Z,103237.16
2023-01-23T00:18:57.119Z,103236.88
2023-01-23T00:21:27.626Z,103230.47
2023-01-23T00:23:57.515Z,103235.53
2023-01-23T00:26:27.145Z,103236.03
2023-01-23T00:28:56.026Z,103232.47
2023-01-23T00:31:27.047Z,103231.53
2023-01-23T00:33:56.811Z,103233.34
2023-01-23T00:36:25.417Z,103235.06
2023-01-23T00:38:56.094Z,103233.38
2023-01-23T00:41:24.196Z,103241.97
2023-01-23T00:43:52.311Z,103236.88
2023-01-23T00:46:20.613Z,103230.91
2023-01-23T00:48:50.372Z,103243.31
2023-01-23T00:51:20.137Z,103249.38
2023-01-23T00:53:48.207Z,103250.44
2023-01-23T00:56:16.181Z,103248.75
2023-01-23T00:58:45.245Z,103249.50
2023-01-23T01:01:13.985Z,103251.69
2023-01-23T01:03:42.270Z,103260.28
2023-01-23T01:06:12.272Z,103261.78
2023-01-23T01:08:40.335Z,103264.38
2023-01-23T01:11:09.024Z,103264.38
2023-01-23T01:13:37.421Z,103276.19
2023-01-23T01:16:06.131Z,103268.72
2023-01-23T01:18:34.260Z,103270.56
2023-01-23T01:21:02.396Z,103264.69
2023-01-23T01:23:31.620Z,103265.78
2023-01-23T01:26:00.479Z,103271.13
2023-01-23T01:28:30.321Z,103267.16
2023-01-23T01:30:58.660Z,103275.28
2023-01-23T01:33:28.735Z,103278.22
2023-01-23T01:35:58.037Z,103282.31
2023-01-23T01:38:26.251Z,103285.75
2023-01-23T01:40:57.285Z,103288.38
2023-01-23T01:43:26.951Z,103287.66
2023-01-23T01:46:07.712Z,103289.13
2023-01-23T01:48:41.601Z,103283.94
2023-01-23T01:51:18.417Z,103295.44
2023-01-23T01:53:49.908Z,103302.09
2023-01-23T01:56:20.096Z,103301.03
2023-01-23T01:58:53.005Z,103299.94
2023-01-23T02:01:21.563Z,103294.72
2023-01-23T02:03:51.832Z,103296.47
2023-01-23T02:06:20.670Z,103296.91
2023-01-23T02:08:54.534Z,103295.44
2023-01-23T02:11:24.171Z,103296.16
2023-01-23T02:13:55.307Z,103287.06
2023-01-23T02:16:28.128Z,103289.84
2023-01-23T02:19:00.593Z,103297.13
2023-01-23T02:21:29.114Z,103294.44
2023-01-23T02:24:19.635Z,103295.19
2023-01-23T02:26:48.990Z,103296.34
2023-01-23T02:29:19.234Z,103291.75
2023-01-23T02:31:56.242Z,103298.88
2023-01-23T02:34:26.055Z,103301.63
2023-01-23T02:36:58.779Z,103304.34
2023-01-23T02:39:27.600Z,103293.53
2023-01-23T02:42:00.571Z,103308.22
2023-01-23T02:44:43.348Z,103301.06
2023-01-23T02:47:12.470Z,103299.72
2023-01-23T02:49:42.829Z,103303.56
2023-01-23T02:52:11.477Z,103310.38
2023-01-23T02:54:40.348Z,103315.63
2023-01-23T02:57:10.210Z,103317.38
2023-01-23T02:59:57.239Z,103320.06
2023-01-23T03:02:26.569Z,103322.72
2023-01-23T03:04:54.614Z,103321.75
2023-01-23T03:07:22.514Z,103319.16
2023-01-23T03:09:51.051Z,103326.25
2023-01-23T03:12:20.325Z,103329.72
2023-01-23T03:14:48.579Z,103329.94
2023-01-23T03:17:16.535Z,103337.28
2023-01-23T03:19:44.427Z,103330.72
2023-01-23T03:22:12.376Z,103337.19
2023-01-23T03:24:40.516Z,103349.00
2023-01-23T03:27:08.611Z,103346.13
2023-01-23T03:30:04.207Z,103343.31
2023-01-23T03:32:32.129Z,103351.13
2023-01-23T03:35:00.701Z,103348.53
2023-01-23T03:37:29.079Z,103352.97
2023-01-23T03:40:15.829Z,103369.75
2023-01-23T03:42:44.241Z,103365.00
2023-01-23T03:45:16.682Z,103359.47
2023-01-23T03:47:44.681Z,103356.69
2023-01-23T03:50:12.667Z,103371.34
2023-01-23T03:52:41.196Z,103376.50
2023-01-23T03:55:10.603Z,103382.00
2023-01-23T03:57:39.335Z,103379.03
2023-01-23T04:00:28.881Z,103362.78
2023-01-23T04:03:01.603Z,103361.53
2023-01-23T04:05:30.091Z,103373.91
2023-01-23T04:07:58.116Z,103382.06
2023-01-23T04:10:26.804Z,103372.97
2023-01-23T04:12:58.066Z,103387.41
2023-01-23T04:15:28.391Z,103378.88
2023-01-23T04:17:58.574Z,103379.44
2023-01-23T04:20:27.259Z,103383.19
2023-01-23T04:22:57.017Z,103392.94
2023-01-23T04:25:25.050Z,103400.28
2023-01-23T04:27:53.575Z,103401.53
2023-01-23T04:30:22.169Z,103407.53
2023-01-23T04:32:51.862Z,103410.53
2023-01-23T04:35:20.958Z,103405.75
2023-01-23T04:37:48.899Z,103407.69
2023-01-23T04:40:18.017Z,103413.06
2023-01-23T04:42:56.200Z,103400.56
2023-01-23T04:45:32.277Z,103394.91
2023-01-23T04:48:14.686Z,103401.69
2023-01-23T04:50:44.069Z,103394.34
2023-01-23T04:53:12.357Z,103393.44
2023-01-23T04:55:40.521Z,103391.66
2023-01-23T04:58:12.473Z,103388.00
2023-01-23T05:00:41.121Z,103384.44
2023-01-23T05:03:09.161Z,103390.53
2023-01-23T05:05:44.225Z,103393.38
2023-01-23T05:08:12.622Z,103388.88
2023-01-23T05:10:41.856Z,103393.66
2023-01-23T05:13:12.707Z,103389.97
2023-01-23T05:15:41.111Z,103381.88
2023-01-23T05:18:09.045Z,103391.38
2023-01-23T05:20:37.488Z,103394.34
2023-01-23T05:23:07.678Z,103407.28
2023-01-23T05:25:47.458Z,103410.03
2023-01-23T05:28:15.458Z,103414.72
2023-01-23T05:30:48.987Z,103408.19
2023-01-23T05:33:23.694Z,103409.94
2023-01-23T05:35:51.651Z,103409.72
2023-01-23T05:38:21.330Z,103411.72
2023-01-23T05:40:51.478Z,103403.41
2023-01-23T05:43:37.900Z,103396.38
2023-01-23T05:46:25.921Z,103397.94
2023-01-23T05:48:54.242Z,103385.25
2023-01-23T05:51:23.506Z,103394.22
2023-01-23T05:53:53.828Z,103395.81
2023-01-23T05:56:21.888Z,103404.69
2023-01-23T05:59:24.574Z,103413.75
2023-01-23T06:02:12.979Z,103424.75
2023-01-23T06:04:59.199Z,103427.25
2023-01-23T06:07:39.008Z,103433.03
2023-01-23T06:10:12.023Z,103431.53
2023-01-23T06:12:40.070Z,103435.97
2023-01-23T06:15:09.335Z,103447.63
2023-01-23T06:17:37.466Z,103455.63
2023-01-23T06:20:07.115Z,103446.47
2023-01-23T06:22:35.244Z,103452.81
2023-01-23T06:25:08.603Z,103448.03
2023-01-23T06:27:38.683Z,103451.00
2023-01-23T06:30:10.871Z,103453.16
2023-01-23T06:32:41.875Z,103454.53
2023-01-23T06:35:11.378Z,103441.91
2023-01-23T06:37:42.314Z,103442.03
2023-01-23T06:40:13.948Z,103451.72
2023-01-23T06:42:50.960Z,103445.38
2023-01-23T06:45:19.379Z,103448.97
2023-01-23T06:47:47.706Z,103451.50
2023-01-23T06:50:17.570Z,103455.81
2023-01-23T06:52:45.696Z,103459.00
2023-01-23T06:55:14.691Z,103462.28
2023-01-23T06:57:45.031Z,103477.34
2023-01-23T07:00:16.543Z,103471.88
2023-01-23T07:02:45.796Z,103469.69
2023-01-23T07:05:14.661Z,103473.00
2023-01-23T07:07:46.583Z,103466.88
2023-01-23T07:10:14.675Z,103473.03
2023-01-23T07:12:42.610Z,103480.56
2023-01-23T07:15:12.110Z,103487.56
2023-01-23T07:17:43.765Z,103489.78
2023-01-23T07:20:12.951Z,103491.78
2023-01-23T07:22:43.805Z,103488.13
2023-01-23T07:25:11.745Z,103495.13
2023-01-23T07:27:39.651Z,103501.91
2023-01-23T07:30:08.815Z,103499.44
2023-01-23T07:32:36.744Z,103504.81
2023-01-23T07:35:07.179Z,103494.72
2023-01-23T07:37:35.618Z,103508.34
2023-01-23T07:40:03.757Z,103503.91
2023-01-23T07:42:31.726Z,103503.03
2023-01-23T07:44:59.644Z,103498.63
2023-01-23T07:47:27.656Z,103496.75
2023-01-23T07:49:55.519Z,103496.75
2023-01-23T07:52:24.890Z,103496.53
2023-01-23T07:54:52.767Z,103502.91
2023-01-23T07:57:20.765Z,103504.63
2023-01-23T07:59:48.978Z,103499.38
2023-01-23T08:02:16.847Z,103504.81
2023-01-23T08:04:44.789Z,103507.25
2023-01-23T08:07:12.744Z,103495.69
2023-01-23T08:09:42.018Z,103483.97
2023-01-23T08:12:09.961Z,103489.22
2023-01-23T08:14:37.912Z,103489.59
2023-01-23T08:17:06.587Z,103494.00
2023-01-23T08:19:34.475Z,103500.06
2023-01-23T08:22:02.380Z,103501.78
2023-01-23T08:24:30.301Z,103502.66
2023-01-23T08:26:59.713Z,103502.53
2023-01-23T08:29:27.768Z,103509.63
2023-01-23T08:31:55.789Z,103517.59
2023-01-23T08:34:24.091Z,103515.81
2023-01-23T08:36:52.443Z,103522.78
2023-01-23T08:39:21.141Z,103536.63
2023-01-23T08:41:49.095Z,103530.25
2023-01-23T08:44:18.431Z,103528.66
2023-01-23T08:46:46.975Z,103539.69
2023-01-23T08:49:14.909Z,103551.16
2023-01-23T08:51:42.816Z,103564.25
2023-01-23T08:54:10.694Z,103555.41
2023-01-23T08:56:40.962Z,103561.38
2023-01-23T08:59:09.017Z,103570.91
2023-01-23T09:01:38.335Z,103577.78
2023-01-23T09:04:06.453Z,103572.66
2023-01-23T09:06:34.463Z,103569.28
2023-01-23T09:09:02.595Z,103568.03
2023-01-23T09:11:30.515Z,103574.31
2023-01-23T09:13:58.516Z,103581.94
2023-01-23T09:16:26.460Z,103587.63
2023-01-23T09:18:57.324Z,103591.16
2023-01-23T09:21:25.470Z,103592.78
2023-01-23T09:23:53.487Z,103600.88
2023-01-23T09:26:21.400Z,103598.28
2023-01-23T09:28:49.308Z,103600.84
2023-01-23T09:31:17.267Z,103594.53
2023-01-23T09:33:45.210Z,103597.34
2023-01-23T09:36:14.465Z,103610.28
2023-01-23T09:38:42.389Z,103601.50
2023-01-23T09:41:16.849Z,103592.81
2023-01-23T09:43:53.039Z,103599.94
2023-01-23T09:46:26.113Z,103602.75
2023-01-23T09:49:00.259Z,103606.47
2023-01-23T09:51:35.408Z,103600.63
2023-01-23T09:54:12.186Z,103603.41
2023-01-23T09:56:45.114Z,103614.75
2023-01-23T09:59:15.609Z,103606.81
2023-01-23T10:01:43.571Z,103604.63
2023-01-23T10:04:13.818Z,103608.91
2023-01-23T10:07:14.782Z,103611.78
2023-01-23T10:10:02.724Z,103609.03
2023-01-23T10:12:45.774Z,103607.56
2023-01-23T10:15:25.062Z,103600.34
2023-01-23T10:18:03.863Z,103612.72
2023-01-23T10:20:51.041Z,103621.22
2023-01-23T10:23:47.883Z,103612.81
2023-01-23T10:26:21.747Z,103612.88
2023-01-23T10:28:49.823Z,103613.47
2023-01-23T10:31:30.063Z,103615.13
2023-01-23T10:34:07.969Z,103622.59
2023-01-23T10:36:47.830Z,103616.41
2023-01-23T10:39:28.406Z,103625.00
2023-01-23T10:42:02.019Z,103626.91
2023-01-23T10:44:31.027Z,103620.72
2023-01-23T10:47:03.737Z,103623.31
2023-01-23T10:49:35.238Z,103618.66
2023-01-23T10:52:03.335Z,103625.00
2023-01-23T10:54:45.786Z,103620.72
2023-01-23T10:57:24.395Z,103613.41
2023-01-23T10:59:56.805Z,103612.41
2023-01-23T11:02:29.914Z,103619.81
2023-01-23T11:04:57.883Z,103615.28
2023-01-23T11:07:27.565Z,103612.25
2023-01-23T11:09:59.115Z,103617.59
2023-01-23T11:12:29.132Z,103618.72
2023-01-23T11:15:13.129Z,103615.25
2023-01-23T11:17:43.347Z,103619.53
2023-01-23T11:20:26.252Z,103612.97
2023-01-23T11:23:07.057Z,103612.84
2023-01-23T11:25:38.514Z,103609.16
2023-01-23T11:28:23.451Z,103596.22
2023-01-23T11:31:03.779Z,103600.72
2023-01-23T11:33:44.366Z,103599.72
2023-01-23T11:36:31.066Z,103603.31
2023-01-23T11:39:04.943Z,103598.81
2023-01-23T11:41:36.953Z,103601.06
2023-01-23T11:44:11.313Z,103592.63
2023-01-23T11:47:01.616Z,103589.78
2023-01-23T11:49:51.434Z,103594.34
2023-01-23T11:52:31.680Z,103600.06
2023-01-23T11:55:18.597Z,103594.91
2023-01-23T11:57:58.596Z,103590.19
2023-01-23T12:00:33.887Z,103588.72
2023-01-23T12:03:47.509Z,103577.88
2023-01-23T12:06:30.958Z,103574.38
2023-01-23T12:09:03.816Z,103573.09
2023-01-23T12:11:39.602Z,103569.81
2023-01-23T12:14:17.164Z,103566.69
2023-01-23T12:17:02.919Z,103561.84
2023-01-23T12:20:02.698Z,103561.66
2023-01-23T12:22:43.705Z,103563.38
2023-01-23T12:25:24.354Z,103556.16
2023-01-23T12:28:01.835Z,103560.88
2023-01-23T12:30:54.209Z,103561.16
2023-01-23T12:33:39.406Z,103566.75
2023-01-23T12:36:31.464Z,103559.84
2023-01-23T12:39:10.548Z,103555.56
2023-01-23T12:41:43.899Z,103565.69
2023-01-23T12:44:17.712Z,103561.41
2023-01-23T12:46:52.551Z,103565.47
2023-01-23T12:49:30.827Z,103559.75
2023-01-23T12:52:03.597Z,103547.91
2023-01-23T12:54:38.325Z,103544.97
2023-01-23T12:57:09.306Z,103545.81
2023-01-23T12:59:53.141Z,103556.47
2023-01-23T13:02:35.445Z,103550.94
2023-01-23T13:05:16.437Z,103558.00
2023-01-23T13:07:53.498Z,103552.69
2023-01-23T13:11:04.955Z,103557.19
2023-01-23T13:13:33.575Z,103563.22
2023-01-23T13:16:12.491Z,103567.41
2023-01-23T13:19:10.347Z,103563.31
2023-01-23T13:21:55.497Z,103558.13
2023-01-23T13:24:50.422Z,103561.41
2023-01-23T13:27:45.533Z,103563.44
2023-01-23T13:30:43.326Z,103565.50
2023-01-23T13:33:55.301Z,103571.72
2023-01-23T13:36:29.653Z,103562.09
2023-01-23T13:39:23.732Z,103562.78
2023-01-23T13:41:53.919Z,103568.19
2023-01-23T13:44:35.808Z,103564.78
2023-01-23T14:22:08.469Z,103579.31
2023-01-23T14:24:45.019Z,103576.72
2023-01-23T14:27:22.021Z,103574.91
2023-01-23T14:29:59.559Z,103572.38
2023-01-23T14:32:30.923Z,103573.25
2023-01-23T14:34:59.213Z,103576.75
2023-01-23T14:37:29.262Z,103587.47
2023-01-23T14:40:09.908Z,103584.09
2023-01-23T14:42:40.347Z,103586.84
2023-01-23T14:45:13.785Z,103580.69
2023-01-23T14:47:46.963Z,103584.09
2023-01-23T14:50:19.755Z,103580.81
2023-01-23T14:52:57.742Z,103585.88
2023-01-23T14:55:30.259Z,103598.41
2023-01-23T14:58:01.141Z,103605.78
2023-01-23T15:00:30.389Z,103604.03
2023-01-23T15:02:58.478Z,103603.38
2023-01-23T15:05:28.332Z,103602.59
2023-01-23T15:07:59.082Z,103607.56
2023-01-23T15:10:30.681Z,103599.44
2023-01-23T15:13:02.046Z,103606.81
2023-01-23T15:15:31.679Z,103604.94
2023-01-23T15:18:01.493Z,103603.03
2023-01-23T15:20:32.913Z,103609.22
2023-01-23T15:23:21.920Z,103609.22
2023-01-23T15:26:00.875Z,103612.00
2023-01-23T15:28:39.481Z,103620.09
2023-01-23T15:31:22.097Z,103620.19
2023-01-23T15:33:50.107Z,103625.34
2023-01-23T15:36:26.266Z,103632.19
2023-01-23T15:38:55.148Z,103633.81
2023-01-23T15:41:40.841Z,103632.34
2023-01-23T15:44:17.207Z,103637.38
2023-01-23T15:46:45.146Z,103645.34
2023-01-23T15:49:24.352Z,103643.28
2023-01-23T15:51:53.386Z,103635.91
2023-01-23T15:54:25.338Z,103640.16
2023-01-23T15:57:06.542Z,103640.94
2023-01-23T15:59:36.833Z,103639.38
2023-01-23T16:02:05.155Z,103643.09
2023-01-23T16:04:33.046Z,103641.22
2023-01-23T16:07:05.917Z,103651.19
2023-01-23T16:09:36.991Z,103647.63
2023-01-23T16:12:06.909Z,103646.53
2023-01-23T16:14:34.798Z,103640.28
2023-01-23T16:17:15.949Z,103639.38
2023-01-23T16:19:44.953Z,103647.38
2023-01-23T16:22:23.674Z,103648.13
2023-01-23T16:24:51.633Z,103637.66
2023-01-23T16:27:27.131Z,103644.44
2023-01-23T16:29:55.710Z,103644.81
2023-01-23T16:32:25.087Z,103643.09
2023-01-23T16:34:53.206Z,103645.59
2023-01-23T16:37:21.300Z,103657.38
2023-01-23T16:39:49.226Z,103657.09
2023-01-23T16:42:21.972Z,103660.88
2023-01-23T16:44:50.147Z,103650.06
2023-01-23T16:47:18.252Z,103658.00
2023-01-23T16:49:52.618Z,103658.81
2023-01-23T16:52:24.423Z,103657.06
2023-01-23T16:54:53.573Z,103655.34
2023-01-23T16:57:23.642Z,103658.09
2023-01-23T16:59:52.251Z,103667.97
2023-01-23T17:02:23.734Z,103659.91
2023-01-23T17:04:51.847Z,103666.94
2023-01-23T17:07:20.576Z,103661.69
2023-01-23T17:09:49.246Z,103671.44
2023-01-23T17:12:22.005Z,103672.28
2023-01-23T17:14:52.938Z,103683.78
2023-01-23T17:17:29.999Z,103674.84
2023-01-23T17:19:58.476Z,103667.88
2023-01-23T17:22:30.443Z,103668.72
2023-01-23T17:24:58.532Z,103677.69
2023-01-23T17:27:26.564Z,103672.38
2023-01-23T17:29:55.784Z,103676.84
2023-01-23T17:32:29.909Z,103672.25
2023-01-23T17:35:01.627Z,103675.78
2023-01-23T17:37:31.128Z,103676.69
2023-01-23T17:39:59.033Z,103675.84
2023-01-23T17:42:27.033Z,103674.84
2023-01-23T17:44:56.354Z,103674.78
2023-01-23T17:47:24.426Z,103678.56
2023-01-23T17:49:54.726Z,103682.81
2023-01-23T17:52:24.897Z,103681.97
2023-01-23T17:54:54.403Z,103683.00
2023-01-23T17:57:22.464Z,103686.34
2023-01-23T17:59:51.572Z,103676.72
2023-01-23T18:02:27.286Z,103681.91
2023-01-23T18:04:56.211Z,103689.00
2023-01-23T18:07:24.107Z,103683.88
2023-01-23T18:09:52.522Z,103680.22
2023-01-23T18:12:29.977Z,103686.81
2023-01-23T18:15:07.455Z,103677.72
2023-01-23T18:17:44.401Z,103680.63
2023-01-23T18:20:20.291Z,103677.81
2023-01-23T18:22:48.854Z,103686.00
2023-01-23T18:25:18.855Z,103680.47
2023-01-23T18:27:50.210Z,103677.03
2023-01-23T18:30:36.179Z,103677.63
2023-01-23T18:33:34.183Z,103682.22
2023-01-23T18:36:20.203Z,103687.53
2023-01-23T18:39:03.981Z,103687.31
2023-01-23T18:41:32.360Z,103680.28
2023-01-23T18:44:11.947Z,103676.78
2023-01-23T18:46:41.432Z,103675.72
2023-01-23T18:49:14.934Z,103680.47
2023-01-23T18:51:50.189Z,103675.91
2023-01-23T18:54:25.603Z,103675.13
2023-01-23T18:57:07.388Z,103683.88
2023-01-23T18:59:44.233Z,103677.66
2023-01-23T19:02:22.292Z,103676.78
2023-01-23T19:04:59.522Z,103680.38
2023-01-23T19:07:27.663Z,103680.59
2023-01-23T19:09:56.148Z,103683.13
2023-01-23T19:12:31.544Z,103686.63
2023-01-23T19:15:10.756Z,103688.41
2023-01-23T19:17:47.835Z,103688.44
2023-01-23T19:20:24.037Z,103684.00
2023-01-23T19:23:01.656Z,103689.31
2023-01-23T19:25:30.211Z,103693.91
2023-01-23T19:28:00.925Z,103691.00
2023-01-23T19:30:29.579Z,103696.28
2023-01-23T19:32:57.456Z,103693.03
2023-01-23T19:35:26.858Z,103686.53
2023-01-23T19:37:54.895Z,103689.22
2023-01-23T19:40:22.853Z,103691.16
2023-01-23T19:43:05.727Z,103691.09
2023-01-23T19:45:41.207Z,103694.44
2023-01-23T19:48:09.406Z,103692.88
2023-01-23T19:50:39.022Z,103704.22
2023-01-23T19:53:07.362Z,103704.31
2023-01-23T19:55:38.263Z,103708.69
2023-01-23T19:58:06.300Z,103702.59
2023-01-23T20:00:36.213Z,103699.91
2023-01-23T20:03:05.363Z,103701.59
2023-01-23T20:05:33.485Z,103703.44
2023-01-23T20:08:02.793Z,103703.44
2023-01-23T20:10:30.740Z,103705.47
2023-01-23T20:12:58.563Z,103694.81
2023-01-23T20:15:27.636Z,103706.41
2023-01-23T20:17:55.560Z,103700.97
2023-01-23T20:20:24.135Z,103704.47
2023-01-23T20:22:52.264Z,103709.75
2023-01-23T20:25:21.911Z,103706.09
2023-01-23T20:27:49.979Z,103709.56
2023-01-23T20:30:20.273Z,103726.63
2023-01-23T20:32:49.117Z,103728.47
2023-01-23T20:35:17.043Z,103724.78
2023-01-23T20:37:44.972Z,103723.00
2023-01-23T20:40:13.198Z,103724.75
2023-01-23T20:42:42.507Z,103731.06
2023-01-23T20:45:11.057Z,103735.53
2023-01-23T20:47:38.906Z,103724.78
2023-01-23T20:50:07.454Z,103740.63
2023-01-23T20:52:52.506Z,103733.50
2023-01-23T20:55:20.747Z,103742.56
2023-01-23T20:58:07.676Z,103736.34
2023-01-23T21:00:35.548Z,103738.06
2023-01-23T21:03:03.554Z,103746.13
2023-01-23T21:05:31.472Z,103745.25
2023-01-23T21:07:59.390Z,103751.41
2023-01-23T21:10:27.272Z,103751.44
2023-01-23T21:12:56.496Z,103750.69
2023-01-23T21:15:24.335Z,103758.50
2023-01-23T21:17:52.197Z,103749.63
2023-01-23T21:20:20.122Z,103759.50
2023-01-23T21:22:48.101Z,103760.28
2023-01-23T21:25:16.022Z,103759.41
2023-01-23T21:27:43.919Z,103758.59
2023-01-23T21:30:14.058Z,103756.75
2023-01-23T21:32:41.970Z,103762.28
2023-01-23T21:35:10.640Z,103757.81
2023-01-23T21:37:38.506Z,103760.41
2023-01-23T21:40:07.859Z,103759.56
2023-01-23T21:42:35.760Z,103748.91
2023-01-23T21:45:03.679Z,103747.03
2023-01-23T21:47:32.916Z,103752.56
2023-01-23T21:50:00.785Z,103745.38
2023-01-23T21:52:29.603Z,103744.59
2023-01-23T21:54:57.598Z,103754.22
2023-01-23T21:57:25.468Z,103751.44
2023-01-23T22:00:07.210Z,103753.16
2023-01-23T22:02:42.328Z,103744.44
2023-01-23T22:05:10.577Z,103743.50
2023-01-23T22:07:38.501Z,103744.38
2023-01-23T22:10:07.444Z,103746.22
2023-01-23T22:12:35.317Z,103732.84
2023-01-23T22:15:03.409Z,103739.19
2023-01-23T22:17:31.679Z,103739.13
2023-01-23T22:20:00.873Z,103751.44
2023-01-23T22:22:28.769Z,103746.13
2023-01-23T22:24:56.649Z,103752.56
2023-01-23T22:27:24.762Z,103763.94
2023-01-23T22:29:52.576Z,103758.56
2023-01-23T22:32:20.501Z,103764.81
2023-01-23T22:34:48.428Z,103764.03
2023-01-23T22:37:17.757Z,103755.91
2023-01-23T22:39:45.672Z,103763.81
2023-01-23T22:42:13.743Z,103764.97
2023-01-23T22:44:41.567Z,103765.84
2023-01-23T22:47:09.533Z,103767.56
2023-01-23T22:49:37.455Z,103770.25
2023-01-23T22:52:07.020Z,103769.34
2023-01-23T22:54:37.753Z,103763.16
2023-01-23T22:57:05.682Z,103761.34
2023-01-23T22:59:33.591Z,103763.94
2023-01-23T23:02:01.483Z,103765.81
2023-01-23T23:04:29.503Z,103766.72
2023-01-23T23:06:57.395Z,103755.19
2023-01-23T23:09:25.337Z,103763.03
2023-01-23T23:11:54.541Z,103775.56
2023-01-23T23:14:22.471Z,103770.22
2023-01-23T23:16:50.363Z,103755.19
2023-01-23T23:19:18.276Z,103753.38
2023-01-23T23:21:46.133Z,103756.03
2023-01-23T23:24:14.901Z,103747.31
2023-01-23T23:26:42.957Z,103744.66
2023-01-23T23:29:12.440Z,103738.50
2023-01-23T23:31:40.523Z,103734.16
2023-01-23T23:34:08.807Z,103737.59
2023-01-23T23:36:36.810Z,103731.41
2023-01-23T23:39:04.774Z,103737.63
2023-01-23T23:41:32.638Z,103733.97
2023-01-23T23:44:00.614Z,103736.69
2023-01-23T23:46:29.847Z,103737.53
2023-01-23T23:48:57.805Z,103740.13
2023-01-23T23:51:26.640Z,103735.81
2023-01-23T23:53:55.631Z,103735.94
2023-01-23T23:56:25.383Z,103739.41
2023-01-23T23:58:54.134Z,103739.34
